Time;durP1;ratioP1;P1;durP2;ratioP2;P2;SDS_P1;SDS_P2;PMS_P1;PMS_P2;Temp;Humidity;BMP_temperature;BMP_pressure;BME280_temperature;BME280_humidity;BME280_pressure;Samples;Min_cycle;Max_cycle;Signal;HPM_P1;HPM_P2
2023/09/04 00:01:39;;;;;;;2.92;2.15;;;20.30;92.60;;;;;;5045019;28;20111;-87
2023/09/04 00:04:06;;;;;;;3.20;2.25;;;20.30;92.60;;;;;;5048489;28;20036;-88
2023/09/04 00:06:32;;;;;;;2.85;2.30;;;20.20;92.60;;;;;;5050523;28;20028;-88
2023/09/04 00:08:59;;;;;;;3.20;2.30;;;20.20;92.60;;;;;;5071583;28;20017;-88
2023/09/04 00:11:28;;;;;;;3.90;2.47;;;20.20;92.60;;;;;;5046365;28;20041;-89
2023/09/04 00:13:54;;;;;;;3.35;2.22;;;20.20;92.60;;;;;;5049347;28;20022;-87
2023/09/04 00:16:19;;;;;;;6.43;2.30;;;20.20;92.60;;;;;;5046097;28;20021;-88
2023/09/04 00:18:45;;;;;;;3.70;2.22;;;20.20;92.60;;;;;;5044761;28;20074;-88
2023/09/04 00:21:11;;;;;;;2.88;2.20;;;20.20;92.60;;;;;;5048615;28;20017;-88
2023/09/04 00:23:36;;;;;;;3.30;2.40;;;20.30;92.60;;;;;;5074076;28;20049;-88
2023/09/04 00:26:02;;;;;;;8.50;3.03;;;20.20;92.60;;;;;;5050422;28;20029;-87
2023/09/04 00:28:28;;;;;;;6.72;2.30;;;20.20;92.60;;;;;;5049324;28;20021;-87
2023/09/04 00:30:54;;;;;;;5.78;2.63;;;20.20;92.60;;;;;;5046094;28;20025;-89
2023/09/04 00:33:19;;;;;;;3.17;2.15;;;20.20;92.60;;;;;;5045213;28;20017;-88
2023/09/04 00:35:45;;;;;;;2.83;2.10;;;20.20;92.60;;;;;;5044522;28;20029;-87
2023/09/04 00:38:11;;;;;;;2.28;1.88;;;20.20;92.50;;;;;;5051515;28;20375;-89
2023/09/04 00:40:36;;;;;;;3.05;2.20;;;20.20;92.50;;;;;;5047295;28;20025;-87
2023/09/04 00:43:02;;;;;;;3.53;2.20;;;20.10;92.50;;;;;;5047363;28;20025;-88
2023/09/04 00:45:28;;;;;;;2.67;2.28;;;20.20;92.50;;;;;;5044054;28;20033;-89
2023/09/04 00:47:54;;;;;;;3.38;2.55;;;20.10;92.50;;;;;;5051997;28;20052;-89
2023/09/04 00:50:23;;;;;;;5.55;2.38;;;20.20;92.50;;;;;;5053383;28;20470;-88
2023/09/04 00:52:50;;;;;;;3.17;2.28;;;20.20;92.60;;;;;;5038385;28;20025;-88
2023/09/04 00:55:16;;;;;;;3.33;2.50;;;20.10;92.50;;;;;;5051394;28;20024;-87
2023/09/04 00:57:44;;;;;;;3.20;2.20;;;20.20;92.50;;;;;;5042720;28;20038;-89
2023/09/04 01:00:12;;;;;;;4.35;2.90;;;20.20;92.50;;;;;;5036655;28;20021;-87
2023/09/04 01:02:39;;;;;;;3.05;2.00;;;20.20;92.50;;;;;;5042997;28;20025;-89
2023/09/04 01:05:06;;;;;;;4.38;2.55;;;20.10;92.80;;;;;;5051101;28;20033;-88
2023/09/04 01:07:32;;;;;;;5.00;2.28;;;20.20;92.50;;;;;;5044837;28;20048;-89
2023/09/04 01:09:59;;;;;;;5.30;2.47;;;20.20;92.50;;;;;;5049797;28;20025;-89
2023/09/04 01:12:54;;;;;;;4.40;2.80;;;20.20;92.50;;;;;;5051394;28;20030;-89
2023/09/04 01:15:20;;;;;;;3.83;2.72;;;20.10;92.50;;;;;;5046707;28;20041;-88
2023/09/04 01:17:45;;;;;;;3.35;3.00;;;20.10;92.50;;;;;;5051211;28;20044;-86
2023/09/04 01:20:26;;;;;;;3.40;2.20;;;20.10;92.50;;;;;;5043414;28;20036;-87
2023/09/04 01:22:52;;;;;;;3.47;2.20;;;20.10;92.50;;;;;;5052687;28;20547;-89
2023/09/04 01:25:18;;;;;;;3.63;2.60;;;20.20;92.80;;;;;;5047213;28;20021;-88
2023/09/04 01:27:55;;;;;;;3.63;2.47;;;20.10;92.50;;;;;;5037757;28;20466;-89
2023/09/04 01:30:34;;;;;;;4.25;2.50;;;20.10;92.50;;;;;;5047370;28;20041;-89
2023/09/04 01:33:04;;;;;;;4.55;2.72;;;20.10;92.50;;;;;;5049094;28;20079;-86
2023/09/04 01:35:30;;;;;;;5.00;2.85;;;20.10;92.50;;;;;;5049685;28;20048;-87
2023/09/04 01:37:57;;;;;;;3.42;2.40;;;20.20;92.50;;;;;;5045974;28;20026;-88
2023/09/04 01:40:23;;;;;;;3.47;2.50;;;20.10;92.50;;;;;;5045551;28;20092;-89
2023/09/04 01:42:49;;;;;;;2.72;2.47;;;20.10;92.50;;;;;;5045004;28;20055;-89
2023/09/04 01:45:14;;;;;;;4.10;2.60;;;20.10;92.50;;;;;;5048195;28;20063;-89
2023/09/04 01:47:40;;;;;;;3.20;2.45;;;20.10;92.50;;;;;;5049485;28;20032;-89
2023/09/04 01:50:06;;;;;;;3.75;2.78;;;20.10;92.50;;;;;;5039602;28;20038;-88
2023/09/04 01:52:31;;;;;;;3.33;2.40;;;20.10;92.50;;;;;;5050254;28;20032;-87
2023/09/04 01:54:57;;;;;;;7.10;3.15;;;20.10;92.50;;;;;;5078384;28;20025;-88
2023/09/04 01:57:22;;;;;;;4.22;2.50;;;20.10;92.50;;;;;;5051363;28;20064;-89
2023/09/04 01:59:48;;;;;;;4.45;2.58;;;20.10;92.50;;;;;;5045577;28;20025;-87
2023/09/04 02:02:13;;;;;;;5.90;3.45;;;20.10;92.50;;;;;;5045908;28;20619;-88
2023/09/04 02:04:39;;;;;;;4.38;2.80;;;20.10;92.50;;;;;;5049143;28;20056;-89
2023/09/04 02:07:05;;;;;;;3.05;2.63;;;20.10;92.50;;;;;;5048279;28;20017;-88
2023/09/04 02:09:31;;;;;;;3.92;2.83;;;20.30;92.60;;;;;;5043173;28;20021;-88
2023/09/04 02:11:56;;;;;;;3.55;2.55;;;20.10;92.50;;;;;;5040704;28;20028;-88
2023/09/04 02:14:22;;;;;;;4.50;2.85;;;20.10;92.50;;;;;;5049951;28;20079;-88
2023/09/04 02:16:48;;;;;;;3.95;3.03;;;20.10;92.50;;;;;;5048905;28;20029;-89
2023/09/04 02:19:13;;;;;;;3.42;2.50;;;20.10;92.50;;;;;;5037002;28;20107;-87
2023/09/04 02:21:39;;;;;;;2.92;2.42;;;20.10;92.50;;;;;;5041383;28;20037;-88
2023/09/04 02:24:05;;;;;;;4.55;3.00;;;20.10;92.50;;;;;;5038683;28;20500;-86
2023/09/04 02:26:30;;;;;;;4.93;2.40;;;20.10;92.50;;;;;;5044683;28;20021;-87
2023/09/04 02:28:56;;;;;;;9.10;3.05;;;20.10;92.50;;;;;;5041290;28;20075;-88
2023/09/04 02:31:22;;;;;;;6.82;2.80;;;20.10;92.50;;;;;;5046368;28;20033;-87
2023/09/04 02:33:47;;;;;;;4.45;2.95;;;20.10;92.50;;;;;;5079261;28;20053;-87
2023/09/04 02:36:13;;;;;;;4.43;2.92;;;20.10;92.50;;;;;;5050394;28;20025;-87
2023/09/04 02:38:41;;;;;;;7.45;3.00;;;20.10;92.50;;;;;;5041854;28;20478;-88
2023/09/04 02:41:06;;;;;;;3.97;2.83;;;20.00;92.40;;;;;;5043427;28;20030;-84
2023/09/04 02:43:32;;;;;;;4.40;3.42;;;20.00;92.40;;;;;;5048524;28;20440;-87
2023/09/04 02:45:58;;;;;;;3.90;2.95;;;20.10;92.40;;;;;;5047946;28;20034;-88
2023/09/04 02:48:24;;;;;;;4.38;2.92;;;20.20;92.50;;;;;;5043328;28;20021;-88
2023/09/04 02:50:49;;;;;;;3.20;2.28;;;20.00;92.40;;;;;;5051062;28;20017;-87
2023/09/04 02:53:15;;;;;;;4.30;3.20;;;20.10;92.40;;;;;;5047148;28;20023;-89
2023/09/04 02:55:47;;;;;;;4.00;3.28;;;20.10;92.40;;;;;;5039895;28;20017;-87
2023/09/04 02:58:13;;;;;;;5.13;3.17;;;20.00;92.40;;;;;;5039383;28;20112;-86
2023/09/04 03:00:41;;;;;;;5.63;3.30;;;20.10;92.40;;;;;;5037958;28;20103;-89
2023/09/04 03:03:07;;;;;;;4.95;2.75;;;20.10;92.40;;;;;;5045597;28;20116;-88
2023/09/04 03:05:32;;;;;;;5.07;2.90;;;20.10;92.40;;;;;;5038531;28;20121;-87
2023/09/04 03:07:58;;;;;;;3.70;2.50;;;20.00;92.40;;;;;;5041679;28;20029;-87
2023/09/04 03:10:24;;;;;;;5.07;2.92;;;20.00;92.40;;;;;;5042164;28;20036;-88
2023/09/04 03:12:50;;;;;;;6.18;3.20;;;20.10;92.40;;;;;;5040073;28;20096;-90
2023/09/04 03:15:15;;;;;;;7.20;3.00;;;20.00;92.40;;;;;;5040084;28;20013;-89
2023/09/04 03:17:41;;;;;;;5.07;3.30;;;20.10;92.40;;;;;;5041425;28;20120;-88
2023/09/04 03:20:10;;;;;;;3.65;2.70;;;20.10;92.40;;;;;;5038455;28;20017;-88
2023/09/04 03:22:35;;;;;;;4.97;3.25;;;20.10;92.40;;;;;;5040920;28;20021;-89
2023/09/04 03:25:01;;;;;;;4.63;3.40;;;20.00;92.40;;;;;;5045458;28;20039;-89
2023/09/04 03:27:27;;;;;;;6.65;2.97;;;20.10;92.40;;;;;;5038308;28;20028;-87
2023/09/04 03:29:52;;;;;;;4.63;2.88;;;20.10;92.40;;;;;;5039085;28;20078;-89
2023/09/04 03:32:18;;;;;;;4.68;2.85;;;20.00;92.40;;;;;;5044746;28;20057;-89
2023/09/04 03:34:44;;;;;;;4.28;2.97;;;20.00;92.40;;;;;;5048012;28;20083;-87
2023/09/04 03:37:11;;;;;;;5.88;3.10;;;20.00;92.30;;;;;;5046930;28;20093;-88
2023/09/04 03:39:38;;;;;;;3.88;2.85;;;20.00;92.40;;;;;;5048787;28;20032;-87
2023/09/04 03:42:07;;;;;;;7.97;3.70;;;20.00;92.40;;;;;;5052325;28;20021;-88
2023/09/04 03:44:33;;;;;;;5.00;3.17;;;20.00;92.40;;;;;;5048854;28;20033;-88
2023/09/04 03:46:58;;;;;;;5.10;3.70;;;20.00;92.30;;;;;;5051704;28;20060;-90
2023/09/04 03:49:24;;;;;;;6.22;3.95;;;20.00;92.30;;;;;;5050087;28;20021;-88
2023/09/04 03:51:50;;;;;;;4.65;2.83;;;20.00;92.30;;;;;;5046921;28;20378;-87
2023/09/04 03:54:15;;;;;;;4.20;3.05;;;20.00;92.30;;;;;;5051385;28;20033;-88
2023/09/04 03:56:41;;;;;;;5.47;3.17;;;20.00;92.30;;;;;;5044713;28;20064;-88
2023/09/04 03:59:06;;;;;;;5.53;3.65;;;20.00;92.30;;;;;;5039628;28;20028;-90
2023/09/04 04:01:33;;;;;;;5.70;3.40;;;20.00;92.30;;;;;;5039293;28;20370;-89
2023/09/04 04:03:59;;;;;;;4.95;3.00;;;20.00;92.30;;;;;;5039769;28;20069;-86
2023/09/04 04:06:25;;;;;;;5.95;4.13;;;20.00;92.30;;;;;;5042430;28;20087;-88
2023/09/04 04:08:54;;;;;;;11.60;3.60;;;20.00;92.30;;;;;;5037025;28;20033;-90
2023/09/04 04:11:20;;;;;;;6.65;3.90;;;20.00;92.30;;;;;;5044016;28;20056;-89
2023/09/04 04:13:46;;;;;;;4.75;3.33;;;20.00;92.30;;;;;;5047257;28;20063;-87
2023/09/04 04:16:12;;;;;;;6.88;3.67;;;20.00;92.30;;;;;;5047823;28;20017;-88
2023/09/04 04:18:38;;;;;;;4.03;3.45;;;20.00;92.30;;;;;;5048523;28;20062;-89
2023/09/04 04:21:04;;;;;;;7.38;3.35;;;20.00;92.30;;;;;;5046662;28;20053;-88
2023/09/04 04:23:30;;;;;;;8.23;3.90;;;20.00;92.30;;;;;;5039463;28;20077;-89
2023/09/04 04:25:55;;;;;;;10.98;3.97;;;20.00;92.30;;;;;;5043413;28;20701;-89
2023/09/04 04:28:22;;;;;;;6.88;3.95;;;20.00;92.30;;;;;;5039263;28;20021;-89
2023/09/04 04:30:48;;;;;;;8.20;4.10;;;20.40;92.40;;;;;;5040059;28;20151;-88
2023/09/04 04:33:14;;;;;;;5.38;3.97;;;20.40;92.40;;;;;;5037203;28;20037;-89
2023/09/04 04:35:40;;;;;;;6.07;4.57;;;20.00;92.30;;;;;;5043195;28;20025;-89
2023/09/04 04:38:06;;;;;;;10.40;4.30;;;20.00;92.30;;;;;;5044752;28;20128;-90
2023/09/04 04:40:33;;;;;;;6.13;4.40;;;20.40;92.70;;;;;;5044624;28;20022;-88
2023/09/04 04:42:58;;;;;;;12.35;4.05;;;20.00;92.30;;;;;;5050509;28;20030;-89
2023/09/04 04:45:24;;;;;;;9.70;3.85;;;20.00;92.30;;;;;;5043686;28;20139;-88
2023/09/04 04:47:50;;;;;;;7.93;4.00;;;20.00;92.30;;;;;;5052503;28;20119;-88
2023/09/04 04:50:16;;;;;;;6.43;4.35;;;20.00;92.30;;;;;;5043905;28;20025;-89
2023/09/04 04:52:42;;;;;;;7.75;4.30;;;20.00;92.30;;;;;;5056099;28;20032;-89
2023/09/04 04:55:07;;;;;;;6.15;4.03;;;20.00;92.30;;;;;;5050248;28;20022;-91
2023/09/04 04:57:33;;;;;;;5.40;4.28;;;20.00;92.30;;;;;;5054253;28;20024;-90
2023/09/04 04:59:59;;;;;;;15.90;4.07;;;20.00;92.30;;;;;;5047233;28;20018;-90
2023/09/04 05:02:25;;;;;;;7.82;4.22;;;19.90;92.60;;;;;;5046087;28;20050;-89
2023/09/04 05:04:50;;;;;;;5.50;4.15;;;20.00;92.30;;;;;;5050176;28;20025;-88
2023/09/04 05:07:16;;;;;;;8.93;4.28;;;20.00;92.30;;;;;;5047008;28;20461;-91
2023/09/04 05:09:41;;;;;;;6.10;4.13;;;19.90;92.20;;;;;;5063721;28;20025;-89
2023/09/04 05:12:07;;;;;;;6.50;4.22;;;20.00;92.20;;;;;;5050853;28;20024;-90
2023/09/04 05:14:33;;;;;;;10.07;4.05;;;19.90;92.20;;;;;;5048441;28;20092;-90
2023/09/04 05:16:59;;;;;;;6.70;3.63;;;19.90;92.20;;;;;;5044568;28;20029;-90
2023/09/04 05:19:25;;;;;;;8.27;4.05;;;19.90;92.20;;;;;;5054257;28;20037;-90
2023/09/04 05:21:51;;;;;;;5.63;3.60;;;19.90;92.20;;;;;;5080557;28;20017;-90
2023/09/04 05:24:16;;;;;;;5.57;3.80;;;19.90;92.20;;;;;;5050740;28;20022;-86
2023/09/04 05:26:42;;;;;;;7.45;4.30;;;19.90;92.20;;;;;;5044159;28;20048;-89
2023/09/04 05:29:08;;;;;;;6.85;4.07;;;19.90;92.20;;;;;;5050776;28;20025;-90
2023/09/04 05:31:33;;;;;;;5.20;4.10;;;20.00;92.20;;;;;;5044095;28;20044;-90
2023/09/04 05:33:59;;;;;;;7.93;3.80;;;19.90;92.20;;;;;;5051081;28;20088;-87
2023/09/04 05:36:24;;;;;;;9.13;4.20;;;19.90;92.20;;;;;;5050083;28;20033;-90
2023/09/04 05:38:50;;;;;;;4.78;3.60;;;19.90;92.20;;;;;;5052319;28;20020;-91
2023/09/04 05:41:15;;;;;;;6.57;4.25;;;19.90;92.20;;;;;;5052496;28;20020;-91
2023/09/04 05:43:41;;;;;;;5.20;4.13;;;19.90;92.20;;;;;;5051526;28;20018;-88
2023/09/04 05:46:07;;;;;;;5.78;4.25;;;19.90;92.20;;;;;;5041979;28;20048;-90
2023/09/04 05:48:35;;;;;;;5.25;4.10;;;19.90;92.20;;;;;;5050363;28;20615;-88
2023/09/04 05:51:02;;;;;;;7.45;4.20;;;19.90;92.20;;;;;;5051201;28;20024;-90
2023/09/04 05:53:28;;;;;;;7.25;4.68;;;19.90;92.20;;;;;;5046944;28;20035;-88
2023/09/04 05:56:11;;;;;;;8.15;4.43;;;19.90;92.50;;;;;;5054050;28;20032;-89
2023/09/04 05:58:52;;;;;;;8.02;4.40;;;19.90;92.20;;;;;;5046193;28;20033;-90
2023/09/04 06:01:19;;;;;;;6.18;4.03;;;19.90;92.20;;;;;;5076323;28;20032;-88
2023/09/04 06:03:46;;;;;;;6.35;4.18;;;19.90;92.20;;;;;;5052394;28;20064;-89
2023/09/04 06:06:12;;;;;;;7.13;4.63;;;19.90;92.20;;;;;;5043337;28;20022;-89
2023/09/04 06:08:38;;;;;;;4.68;3.78;;;19.90;92.20;;;;;;5045697;28;20062;-88
2023/09/04 06:11:04;;;;;;;11.43;4.57;;;19.90;92.20;;;;;;5050469;28;20514;-89
2023/09/04 06:13:31;;;;;;;5.30;3.88;;;20.00;92.20;;;;;;5047326;28;20033;-87
2023/09/04 06:15:58;;;;;;;7.32;4.13;;;19.90;92.20;;;;;;5040113;28;20013;-88
2023/09/04 06:18:24;;;;;;;6.32;4.05;;;19.90;92.20;;;;;;5044995;28;20112;-90
2023/09/04 06:20:51;;;;;;;5.88;3.75;;;19.90;92.20;;;;;;5060795;28;20171;-88
2023/09/04 06:23:17;;;;;;;8.20;4.25;;;20.00;92.20;;;;;;5037779;28;20022;-89
2023/09/04 06:25:43;;;;;;;5.15;3.80;;;20.00;92.20;;;;;;5047685;28;20037;-88
2023/09/04 06:28:10;;;;;;;7.68;4.20;;;20.00;92.30;;;;;;5035250;28;20029;-87
2023/09/04 06:30:36;;;;;;;6.32;4.05;;;19.90;92.20;;;;;;5045073;28;20021;-90
2023/09/04 06:33:03;;;;;;;6.15;3.85;;;19.90;92.20;;;;;;5043106;28;20037;-89
2023/09/04 06:35:29;;;;;;;6.65;3.42;;;19.90;92.20;;;;;;5046090;28;20074;-91
2023/09/04 06:37:55;;;;;;;6.65;4.50;;;20.00;92.30;;;;;;5041626;28;20127;-87
2023/09/04 06:40:21;;;;;;;5.63;4.03;;;20.00;92.30;;;;;;5040909;28;20458;-89
2023/09/04 06:42:47;;;;;;;4.22;3.35;;;20.00;92.30;;;;;;5037922;28;20029;-87
2023/09/04 06:45:13;;;;;;;6.97;3.60;;;20.00;92.30;;;;;;5041095;28;20037;-88
2023/09/04 06:47:39;;;;;;;5.45;3.47;;;20.00;92.30;;;;;;5040906;28;20027;-89
2023/09/04 06:50:06;;;;;;;5.57;3.67;;;20.00;92.30;;;;;;5038871;28;20025;-88
2023/09/04 06:52:32;;;;;;;4.57;3.75;;;20.00;92.30;;;;;;5046619;28;20096;-89
2023/09/04 06:54:57;;;;;;;8.45;4.10;;;20.00;92.30;;;;;;5048150;28;20037;-87
2023/09/04 06:57:23;;;;;;;6.65;4.30;;;20.00;92.30;;;;;;5051486;28;20100;-87
2023/09/04 06:59:49;;;;;;;6.53;4.10;;;20.00;92.40;;;;;;5041482;28;20021;-87
2023/09/04 07:02:14;;;;;;;5.28;3.80;;;20.00;92.30;;;;;;5045554;28;20059;-88
2023/09/04 07:04:40;;;;;;;5.70;3.70;;;20.00;92.30;;;;;;5047166;28;20033;-88
2023/09/04 07:07:05;;;;;;;8.88;3.83;;;20.00;92.40;;;;;;5041801;28;20029;-87
2023/09/04 07:09:31;;;;;;;5.88;3.92;;;20.00;92.40;;;;;;5042992;28;20032;-88
2023/09/04 07:11:57;;;;;;;9.20;4.00;;;20.00;92.40;;;;;;5040192;28;20024;-87
2023/09/04 07:14:22;;;;;;;6.07;4.25;;;20.00;92.40;;;;;;5045230;28;20039;-87
2023/09/04 07:16:48;;;;;;;6.43;4.25;;;20.10;92.40;;;;;;5045681;28;20033;-88
2023/09/04 07:19:13;;;;;;;5.82;4.50;;;20.00;92.40;;;;;;5048030;28;20037;-87
2023/09/04 07:21:40;;;;;;;8.40;4.15;;;20.10;92.40;;;;;;5047709;28;20539;-87
2023/09/04 07:24:06;;;;;;;7.90;4.60;;;20.00;92.40;;;;;;5044478;28;20560;-87
2023/09/04 07:26:32;;;;;;;5.15;4.05;;;20.00;92.40;;;;;;5034114;28;20064;-89
2023/09/04 07:28:57;;;;;;;10.57;3.78;;;20.00;92.40;;;;;;5045301;28;20034;-87
2023/09/04 07:31:23;;;;;;;7.25;3.67;;;20.10;92.50;;;;;;5039342;28;20100;-88
2023/09/04 07:33:50;;;;;;;7.20;3.72;;;20.00;92.40;;;;;;5037499;28;20032;-88
2023/09/04 07:36:16;;;;;;;4.53;4.00;;;20.10;92.50;;;;;;5046174;28;20082;-88
2023/09/04 07:38:43;;;;;;;5.30;3.92;;;20.10;92.50;;;;;;5040744;28;20096;-87
2023/09/04 07:41:09;;;;;;;4.75;3.70;;;20.10;92.50;;;;;;5044323;28;20021;-90
2023/09/04 07:43:35;;;;;;;5.78;3.55;;;20.00;92.40;;;;;;5043293;28;20082;-87
2023/09/04 07:46:02;;;;;;;6.13;4.68;;;20.10;92.50;;;;;;5038341;28;20030;-86
2023/09/04 07:48:28;;;;;;;10.60;4.60;;;20.00;92.50;;;;;;5044711;28;20505;-86
2023/09/04 07:50:54;;;;;;;5.40;4.05;;;20.00;92.50;;;;;;5047109;28;20028;-87
2023/09/04 07:53:20;;;;;;;5.55;3.88;;;20.10;92.50;;;;;;5044791;28;20079;-86
2023/09/04 07:55:47;;;;;;;7.10;4.30;;;20.10;92.50;;;;;;5046269;28;20106;-87
2023/09/04 07:58:12;;;;;;;7.35;4.50;;;20.00;92.50;;;;;;5040964;28;20035;-87
2023/09/04 08:00:51;;;;;;;9.32;3.65;;;20.00;92.50;;;;;;5047071;28;20033;-87
2023/09/04 08:03:17;;;;;;;8.68;4.45;;;20.10;92.50;;;;;;5045192;28;20025;-88
2023/09/04 08:05:43;;;;;;;5.43;3.88;;;20.10;92.50;;;;;;5041868;28;20130;-87
2023/09/04 08:08:10;;;;;;;6.05;3.65;;;20.10;92.50;;;;;;5034809;28;20125;-87
2023/09/04 08:10:42;;;;;;;8.88;4.88;;;20.10;92.90;;;;;;5047627;28;20037;-88
2023/09/04 08:13:10;;;;;;;5.28;3.70;;;20.10;92.50;;;;;;5038391;28;20037;-87
2023/09/04 08:15:36;;;;;;;6.80;4.07;;;20.10;92.50;;;;;;5046885;28;20065;-87
2023/09/04 08:18:02;;;;;;;5.22;3.92;;;20.10;92.60;;;;;;5046721;28;20048;-86
2023/09/04 08:20:27;;;;;;;4.25;3.28;;;20.10;92.60;;;;;;5048029;28;20044;-86
2023/09/04 08:22:53;;;;;;;6.47;4.00;;;20.10;92.60;;;;;;5043876;28;20446;-85
2023/09/04 08:25:19;;;;;;;5.78;3.88;;;20.10;92.60;;;;;;5046692;28;20445;-86
2023/09/04 08:27:44;;;;;;;5.43;3.97;;;20.10;92.60;;;;;;5046243;28;20079;-87
2023/09/04 08:30:10;;;;;;;5.25;3.72;;;20.10;92.60;;;;;;5052873;28;20025;-88
2023/09/04 08:32:36;;;;;;;6.40;4.28;;;20.10;92.60;;;;;;5046454;28;20052;-90
2023/09/04 08:35:02;;;;;;;10.48;4.20;;;20.10;92.60;;;;;;5048259;28;20064;-86
2023/09/04 08:37:28;;;;;;;6.18;4.15;;;20.10;92.60;;;;;;5050440;28;20068;-88
2023/09/04 08:39:54;;;;;;;5.57;3.47;;;20.10;92.60;;;;;;5045987;28;20099;-88
2023/09/04 08:42:20;;;;;;;6.20;4.13;;;20.10;92.60;;;;;;5041811;28;20030;-88
2023/09/04 08:44:47;;;;;;;5.93;3.90;;;20.10;92.60;;;;;;5051769;28;20040;-89
2023/09/04 08:47:15;;;;;;;6.53;3.97;;;20.10;92.60;;;;;;5044653;28;20017;-87
2023/09/04 08:49:41;;;;;;;7.20;4.35;;;20.10;92.60;;;;;;5045262;28;20028;-87
2023/09/04 08:52:08;;;;;;;13.63;3.67;;;20.10;92.60;;;;;;5050882;28;20389;-87
2023/09/04 08:54:34;;;;;;;5.18;3.80;;;20.10;92.60;;;;;;5046799;28;20040;-89
2023/09/04 08:56:59;;;;;;;4.85;3.85;;;20.10;92.60;;;;;;5039242;28;20025;-88
2023/09/04 08:59:25;;;;;;;9.50;3.75;;;20.10;92.60;;;;;;5046471;28;20028;-86
2023/09/04 09:01:53;;;;;;;8.77;4.18;;;20.10;92.60;;;;;;5048080;28;20033;-88
2023/09/04 09:04:20;;;;;;;7.13;3.75;;;20.20;92.70;;;;;;5044996;28;20028;-86
2023/09/04 09:06:48;;;;;;;5.20;3.53;;;20.10;92.70;;;;;;5045060;28;20075;-87
2023/09/04 09:09:15;;;;;;;4.93;3.58;;;20.20;92.70;;;;;;5049402;28;20536;-88
2023/09/04 09:11:44;;;;;;;4.82;3.10;;;20.10;92.70;;;;;;5042793;28;20017;-88
2023/09/04 09:14:12;;;;;;;6.40;3.45;;;20.20;92.70;;;;;;5044724;28;20075;-89
2023/09/04 09:16:38;;;;;;;6.40;4.10;;;20.20;92.70;;;;;;5043153;28;20038;-88
2023/09/04 09:19:03;;;;;;;5.55;4.13;;;20.10;92.70;;;;;;5038798;28;20025;-88
2023/09/04 09:21:31;;;;;;;10.40;3.83;;;20.20;92.70;;;;;;5037266;28;20033;-87
2023/09/04 09:24:09;;;;;;;5.13;3.75;;;20.20;92.70;;;;;;5044605;28;20658;-87
2023/09/04 09:26:36;;;;;;;13.57;4.18;;;20.10;92.70;;;;;;5043131;28;20029;-87
2023/09/04 09:29:03;;;;;;;5.50;4.10;;;20.20;92.70;;;;;;5047650;28;20700;-87
2023/09/04 09:31:29;;;;;;;5.30;3.47;;;20.20;92.70;;;;;;5045818;28;20064;-86
2023/09/04 09:33:55;;;;;;;10.00;3.30;;;20.20;92.70;;;;;;5041443;28;20033;-88
2023/09/04 09:36:21;;;;;;;6.93;4.00;;;20.20;92.70;;;;;;5044003;28;20626;-86
2023/09/04 09:38:47;;;;;;;12.82;4.60;;;20.20;92.70;;;;;;5042506;28;20022;-87
2023/09/04 09:41:13;;;;;;;5.07;3.38;;;20.20;92.70;;;;;;5039362;28;20029;-87
2023/09/04 09:43:40;;;;;;;6.03;4.13;;;20.20;92.70;;;;;;5042414;28;20401;-86
2023/09/04 09:46:09;;;;;;;5.25;3.95;;;20.20;92.70;;;;;;5043332;28;20029;-86
2023/09/04 09:48:36;;;;;;;5.63;3.43;;;20.20;92.70;;;;;;5047058;28;20423;-87
2023/09/04 09:51:06;;;;;;;7.03;4.28;;;20.20;92.70;;;;;;5049819;28;20100;-86
2023/09/04 09:53:45;;;;;;;6.33;3.70;;;20.20;92.70;;;;;;5042345;28;20028;-89
2023/09/04 09:56:12;;;;;;;4.77;3.60;;;20.30;92.80;;;;;;5039948;28;20314;-88
2023/09/04 09:58:39;;;;;;;8.75;4.28;;;20.20;92.70;;;;;;5044342;28;20036;-88
2023/09/04 10:01:06;;;;;;;8.20;3.88;;;20.20;92.70;;;;;;5052884;28;20025;-88
2023/09/04 10:03:33;;;;;;;9.95;4.30;;;20.40;92.80;;;;;;5046914;28;20017;-86
2023/09/04 10:06:04;;;;;;;5.50;3.85;;;20.30;92.80;;;;;;5048705;28;20114;-87
2023/09/04 10:08:33;;;;;;;4.30;3.53;;;20.30;92.80;;;;;;5047935;28;20024;-90
2023/09/04 10:11:02;;;;;;;5.43;3.70;;;20.30;92.80;;;;;;5041222;28;20021;-89
2023/09/04 10:13:36;;;;;;;7.22;4.13;;;20.50;92.80;;;;;;5044822;28;20033;-89
2023/09/04 10:16:06;;;;;;;6.53;3.88;;;20.30;92.80;;;;;;5047506;28;20061;-89
2023/09/04 10:18:35;;;;;;;8.23;3.15;;;20.20;92.70;;;;;;5040998;28;20083;-87
2023/09/04 10:21:05;;;;;;;4.20;3.30;;;20.30;92.80;;;;;;5048285;28;20489;-89
2023/09/04 10:23:43;;;;;;;;;;;20.30;93.10;;;;;;5048837;28;20271;-88
2023/09/04 10:26:19;;;;;;;9.85;3.70;;;20.30;92.80;;;;;;5045924;28;19917;-88
2023/09/04 10:28:53;;;;;;;7.32;4.05;;;20.30;92.80;;;;;;5043446;28;20466;-87
2023/09/04 10:31:20;;;;;;;6.28;3.72;;;20.30;92.80;;;;;;5037985;28;20053;-88
2023/09/04 10:33:46;;;;;;;6.78;4.30;;;20.30;92.80;;;;;;5047630;28;20017;-85
2023/09/04 10:36:12;;;;;;;8.20;4.13;;;20.30;92.80;;;;;;5044511;28;20022;-88
2023/09/04 10:38:38;;;;;;;5.28;3.85;;;20.40;92.80;;;;;;5049776;28;20048;-88
2023/09/04 10:41:05;;;;;;;8.98;3.85;;;20.40;92.80;;;;;;5043099;28;20022;-88
2023/09/04 10:43:41;;;;;;;4.53;3.92;;;20.40;92.80;;;;;;5045895;28;20346;-89
2023/09/04 10:46:08;;;;;;;7.20;4.30;;;20.40;92.80;;;;;;5048929;28;20033;-86
2023/09/04 10:48:45;;;;;;;8.27;3.80;;;20.40;92.80;;;;;;5039553;28;20032;-87
2023/09/04 10:51:29;;;;;;;9.48;3.67;;;20.40;92.80;;;;;;5046544;28;20028;-87
2023/09/04 10:53:55;;;;;;;7.10;4.18;;;20.40;92.80;;;;;;5048818;28;20031;-87
2023/09/04 10:56:24;;;;;;;6.53;3.85;;;20.40;92.80;;;;;;5049114;28;20028;-87
2023/09/04 10:59:04;;;;;;;4.97;3.63;;;20.40;92.80;;;;;;5049341;28;20017;-89
2023/09/04 11:01:35;;;;;;;4.40;3.17;;;20.40;92.80;;;;;;5048397;28;20090;-87
2023/09/04 11:04:02;;;;;;;10.02;4.57;;;20.40;92.80;;;;;;5047130;28;20366;-87
2023/09/04 11:06:29;;;;;;;5.05;4.03;;;20.40;92.80;;;;;;5042101;28;20037;-87
2023/09/04 11:08:54;;;;;;;5.22;3.90;;;20.40;92.80;;;;;;5051575;28;20032;-86
2023/09/04 11:11:24;;;;;;;5.43;3.70;;;20.40;92.80;;;;;;5049190;28;20470;-88
2023/09/04 11:14:02;;;;;;;6.95;3.88;;;20.40;92.80;;;;;;5043917;28;20480;-87
2023/09/04 11:16:42;;;;;;;6.22;3.55;;;20.40;92.80;;;;;;5049864;28;20531;-87
2023/09/04 11:19:14;;;;;;;5.10;3.78;;;20.40;92.80;;;;;;5037499;28;20052;-87
2023/09/04 11:21:42;;;;;;;10.43;3.70;;;20.40;92.70;;;;;;5041936;28;20027;-85
2023/09/04 11:24:08;;;;;;;5.43;3.60;;;20.40;92.70;;;;;;5039418;28;20021;-85
2023/09/04 11:26:34;;;;;;;5.40;3.67;;;20.40;92.70;;;;;;5038813;28;20064;-87
2023/09/04 11:29:04;;;;;;;4.82;3.80;;;20.40;92.70;;;;;;5052517;28;20092;-88
2023/09/04 11:31:32;;;;;;;3.60;3.03;;;20.40;92.70;;;;;;5046238;28;20029;-87
2023/09/04 11:33:58;;;;;;;4.95;3.75;;;20.40;92.80;;;;;;5044667;28;20068;-86
2023/09/04 11:36:25;;;;;;;9.10;3.83;;;20.50;92.80;;;;;;5052227;28;20036;-86
2023/09/04 11:39:06;;;;;;;6.72;3.63;;;20.40;92.80;;;;;;5051161;28;20025;-87
2023/09/04 11:41:32;;;;;;;5.68;3.85;;;20.40;92.70;;;;;;5045287;28;20025;-88
2023/09/04 11:43:58;;;;;;;4.75;3.83;;;20.90;92.90;;;;;;5039270;28;20031;-87
2023/09/04 11:46:25;;;;;;;5.47;4.10;;;20.50;93.10;;;;;;5044940;28;20049;-89
2023/09/04 11:48:50;;;;;;;4.47;3.40;;;20.60;92.80;;;;;;5044102;28;20013;-86
2023/09/04 11:51:16;;;;;;;4.88;3.30;;;20.50;92.80;;;;;;5043275;28;20028;-89
2023/09/04 11:53:41;;;;;;;6.25;3.50;;;20.80;92.90;;;;;;5039818;28;20027;-87
2023/09/04 11:56:07;;;;;;;11.43;3.33;;;20.50;92.80;;;;;;5040027;28;20030;-88
2023/09/04 11:58:33;;;;;;;5.22;2.75;;;20.50;92.80;;;;;;5044498;28;20021;-88
2023/09/04 12:01:00;;;;;;;7.03;4.07;;;20.50;92.80;;;;;;5048229;28;20025;-88
2023/09/04 12:03:25;;;;;;;7.72;4.05;;;20.50;92.80;;;;;;5047140;28;20021;-88
2023/09/04 12:05:51;;;;;;;6.28;3.40;;;20.50;92.80;;;;;;5045232;28;20117;-87
2023/09/04 12:08:18;;;;;;;3.70;3.03;;;20.50;92.80;;;;;;5048112;28;20456;-89
2023/09/04 12:10:43;;;;;;;7.70;3.17;;;20.50;92.80;;;;;;5034396;28;20471;-88
2023/09/04 12:13:11;;;;;;;5.00;3.53;;;20.50;92.80;;;;;;5046730;28;20028;-87
2023/09/04 12:15:38;;;;;;;9.95;3.53;;;20.50;92.80;;;;;;5039069;28;20067;-88
2023/09/04 12:18:05;;;;;;;4.15;3.38;;;20.50;92.80;;;;;;5036088;28;20116;-86
2023/09/04 12:20:42;;;;;;;4.35;3.08;;;20.60;92.80;;;;;;5044282;28;20095;-88
2023/09/04 12:23:08;;;;;;;4.30;3.17;;;20.60;92.80;;;;;;5039554;28;20460;-87
2023/09/04 12:25:39;;;;;;;5.13;3.90;;;20.60;92.80;;;;;;5036992;28;20029;-88
2023/09/04 12:28:06;;;;;;;4.35;3.13;;;20.60;92.80;;;;;;5043078;28;20024;-86
2023/09/04 12:30:35;;;;;;;7.55;3.88;;;20.60;92.80;;;;;;5039434;28;20032;-87
2023/09/04 12:33:01;;;;;;;7.78;3.47;;;20.60;92.80;;;;;;5043113;28;20040;-86
2023/09/04 12:35:30;;;;;;;4.65;3.47;;;20.60;92.80;;;;;;5036437;28;20118;-86
2023/09/04 12:37:56;;;;;;;7.15;3.90;;;20.60;92.80;;;;;;5042353;28;20064;-87
2023/09/04 12:40:21;;;;;;;5.28;3.45;;;20.60;92.70;;;;;;5040345;28;20093;-87
2023/09/04 12:42:47;;;;;;;7.80;3.90;;;20.60;92.70;;;;;;5038168;28;20025;-87
2023/09/04 12:45:13;;;;;;;7.38;3.40;;;20.60;92.70;;;;;;5039083;28;20482;-85